sensor_id;sensor_type;location;lat;lon;timestamp;P1;durP1;ratioP1;P2;durP2;ratioP2
24713;SDS011;12820;51.580;5.010;2023-02-28T00:04:21;11.68;;;6.30;;
24713;SDS011;12820;51.580;5.010;2023-02-28T00:09:23;13.13;;;6.75;;
24713;SDS011;12820;51.580;5.010;2023-02-28T00:14:25;14.65;;;6.70;;
24713;SDS011;12820;51.580;5.010;2023-02-28T00:19:27;12.13;;;6.13;;
24713;SDS011;12820;51.580;5.010;2023-02-28T00:24:29;10.98;;;6.47;;
24713;SDS011;12820;51.580;5.010;2023-02-28T00:29:31;13.27;;;6.00;;
24713;SDS011;12820;51.580;5.010;2023-02-28T00:34:33;12.02;;;6.53;;
24713;SDS011;12820;51.580;5.010;2023-02-28T00:39:39;11.27;;;6.32;;
24713;SDS011;12820;51.580;5.010;2023-02-28T00:44:42;13.10;;;6.72;;
24713;SDS011;12820;51.580;5.010;2023-02-28T00:49:46;12.05;;;6.75;;
24713;SDS011;12820;51.580;5.010;2023-02-28T00:54:48;11.27;;;6.82;;
24713;SDS011;12820;51.580;5.010;2023-02-28T00:59:50;16.20;;;7.22;;
24713;SDS011;12820;51.580;5.010;2023-02-28T01:04:52;18.98;;;7.80;;
24713;SDS011;12820;51.580;5.010;2023-02-28T01:09:55;14.40;;;6.70;;
24713;SDS011;12820;51.580;5.010;2023-02-28T01:14:59;12.77;;;6.97;;
24713;SDS011;12820;51.580;5.010;2023-02-28T01:20:01;14.85;;;7.10;;
24713;SDS011;12820;51.580;5.010;2023-02-28T01:25:05;12.93;;;6.93;;
24713;SDS011;12820;51.580;5.010;2023-02-28T01:30:08;12.30;;;6.88;;
24713;SDS011;12820;51.580;5.010;2023-02-28T01:35:10;14.23;;;6.43;;
24713;SDS011;12820;51.580;5.010;2023-02-28T01:40:13;10.77;;;5.95;;
24713;SDS011;12820;51.580;5.010;2023-02-28T01:50:31;14.70;;;6.90;;
24713;SDS011;12820;51.580;5.010;2023-02-28T01:55:37;15.80;;;7.40;;
24713;SDS011;12820;51.580;5.010;2023-02-28T02:00:41;12.02;;;6.90;;
24713;SDS011;12820;51.580;5.010;2023-02-28T02:05:44;13.38;;;6.90;;
24713;SDS011;12820;51.580;5.010;2023-02-28T02:10:51;13.95;;;6.35;;
24713;SDS011;12820;51.580;5.010;2023-02-28T02:26:48;11.20;;;6.00;;
24713;SDS011;12820;51.580;5.010;2023-02-28T02:43:03;15.25;;;6.25;;
24713;SDS011;12820;51.580;5.010;2023-02-28T02:48:11;11.57;;;6.00;;
24713;SDS011;12820;51.580;5.010;2023-02-28T02:53:17;11.15;;;5.63;;
24713;SDS011;12820;51.580;5.010;2023-02-28T02:58:27;14.50;;;5.80;;
24713;SDS011;12820;51.580;5.010;2023-02-28T03:03:33;12.40;;;6.40;;
24713;SDS011;12820;51.580;5.010;2023-02-28T03:08:37;12.30;;;6.18;;
24713;SDS011;12820;51.580;5.010;2023-02-28T03:19:02;13.00;;;6.45;;
24713;SDS011;12820;51.580;5.010;2023-02-28T03:35:22;11.68;;;5.90;;
24713;SDS011;12820;51.580;5.010;2023-02-28T03:40:28;15.27;;;6.45;;
24713;SDS011;12820;51.580;5.010;2023-02-28T03:45:33;13.43;;;6.05;;
24713;SDS011;12820;51.580;5.010;2023-02-28T03:50:42;12.90;;;6.15;;
24713;SDS011;12820;51.580;5.010;2023-02-28T03:55:48;11.13;;;5.75;;
24713;SDS011;12820;51.580;5.010;2023-02-28T04:00:59;15.97;;;6.20;;
24713;SDS011;12820;51.580;5.010;2023-02-28T04:06:13;12.60;;;5.82;;
24713;SDS011;12820;51.580;5.010;2023-02-28T04:11:31;12.43;;;6.15;;
24713;SDS011;12820;51.580;5.010;2023-02-28T04:16:41;13.50;;;6.10;;
24713;SDS011;12820;51.580;5.010;2023-02-28T04:21:45;9.75;;;6.10;;
24713;SDS011;12820;51.580;5.010;2023-02-28T04:26:50;16.48;;;6.00;;
24713;SDS011;12820;51.580;5.010;2023-02-28T04:31:53;12.88;;;5.65;;
24713;SDS011;12820;51.580;5.010;2023-02-28T04:36:56;10.68;;;5.85;;
24713;SDS011;12820;51.580;5.010;2023-02-28T04:42:13;12.27;;;5.82;;
24713;SDS011;12820;51.580;5.010;2023-02-28T04:47:16;12.27;;;5.50;;
24713;SDS011;12820;51.580;5.010;2023-02-28T04:52:18;11.00;;;5.93;;
24713;SDS011;12820;51.580;5.010;2023-02-28T04:57:20;11.07;;;5.70;;
24713;SDS011;12820;51.580;5.010;2023-02-28T05:02:22;12.57;;;6.13;;
24713;SDS011;12820;51.580;5.010;2023-02-28T05:07:25;12.55;;;6.00;;
24713;SDS011;12820;51.580;5.010;2023-02-28T05:12:27;10.75;;;5.85;;
24713;SDS011;12820;51.580;5.010;2023-02-28T05:17:30;11.88;;;5.38;;
24713;SDS011;12820;51.580;5.010;2023-02-28T05:22:32;13.43;;;5.82;;
24713;SDS011;12820;51.580;5.010;2023-02-28T05:27:34;12.85;;;5.72;;
24713;SDS011;12820;51.580;5.010;2023-02-28T05:32:39;9.93;;;5.07;;
24713;SDS011;12820;51.580;5.010;2023-02-28T05:37:44;10.35;;;5.53;;
24713;SDS011;12820;51.580;5.010;2023-02-28T05:42:46;12.75;;;5.70;;
24713;SDS011;12820;51.580;5.010;2023-02-28T05:47:49;14.05;;;6.57;;
24713;SDS011;12820;51.580;5.010;2023-02-28T05:52:54;13.07;;;7.18;;
24713;SDS011;12820;51.580;5.010;2023-02-28T05:57:56;15.90;;;7.65;;
24713;SDS011;12820;51.580;5.010;2023-02-28T06:02:59;12.38;;;6.20;;
24713;SDS011;12820;51.580;5.010;2023-02-28T06:08:03;11.25;;;5.22;;
24713;SDS011;12820;51.580;5.010;2023-02-28T06:13:07;9.10;;;4.60;;
24713;SDS011;12820;51.580;5.010;2023-02-28T06:18:09;11.90;;;5.32;;
24713;SDS011;12820;51.580;5.010;2023-02-28T06:23:12;13.25;;;5.25;;
24713;SDS011;12820;51.580;5.010;2023-02-28T06:28:14;11.45;;;5.20;;
24713;SDS011;12820;51.580;5.010;2023-02-28T06:33:16;11.48;;;5.80;;
24713;SDS011;12820;51.580;5.010;2023-02-28T06:38:18;12.52;;;5.75;;
24713;SDS011;12820;51.580;5.010;2023-02-28T06:43:20;11.65;;;5.15;;
24713;SDS011;12820;51.580;5.010;2023-02-28T06:48:23;11.27;;;5.22;;
24713;SDS011;12820;51.580;5.010;2023-02-28T06:53:25;11.18;;;5.68;;
24713;SDS011;12820;51.580;5.010;2023-02-28T06:58:28;11.35;;;5.63;;
24713;SDS011;12820;51.580;5.010;2023-02-28T07:03:30;11.70;;;6.30;;
24713;SDS011;12820;51.580;5.010;2023-02-28T07:08:35;15.43;;;7.97;;
24713;SDS011;12820;51.580;5.010;2023-02-28T07:13:37;15.30;;;8.23;;
24713;SDS011;12820;51.580;5.010;2023-02-28T07:18:40;12.73;;;7.65;;
24713;SDS011;12820;51.580;5.010;2023-02-28T07:23:42;14.82;;;6.45;;
24713;SDS011;12820;51.580;5.010;2023-02-28T07:28:45;11.93;;;6.38;;
24713;SDS011;12820;51.580;5.010;2023-02-28T07:33:49;11.13;;;5.40;;
24713;SDS011;12820;51.580;5.010;2023-02-28T07:38:51;12.07;;;6.13;;
24713;SDS011;12820;51.580;5.010;2023-02-28T07:43:54;9.88;;;5.00;;
24713;SDS011;12820;51.580;5.010;2023-02-28T07:48:57;9.85;;;5.15;;
24713;SDS011;12820;51.580;5.010;2023-02-28T07:54:01;8.98;;;4.72;;
24713;SDS011;12820;51.580;5.010;2023-02-28T07:59:03;9.25;;;4.50;;
24713;SDS011;12820;51.580;5.010;2023-02-28T08:04:05;8.30;;;4.05;;
24713;SDS011;12820;51.580;5.010;2023-02-28T08:09:07;10.65;;;3.95;;
24713;SDS011;12820;51.580;5.010;2023-02-28T08:14:10;7.40;;;4.00;;
24713;SDS011;12820;51.580;5.010;2023-02-28T08:19:12;10.93;;;4.53;;
24713;SDS011;12820;51.580;5.010;2023-02-28T08:24:14;8.77;;;3.80;;
24713;SDS011;12820;51.580;5.010;2023-02-28T08:29:16;9.82;;;3.58;;
24713;SDS011;12820;51.580;5.010;2023-02-28T08:34:18;5.60;;;2.90;;
24713;SDS011;12820;51.580;5.010;2023-02-28T08:39:20;5.40;;;2.65;;
24713;SDS011;12820;51.580;5.010;2023-02-28T08:44:23;6.30;;;2.90;;
24713;SDS011;12820;51.580;5.010;2023-02-28T08:49:25;5.85;;;2.58;;
24713;SDS011;12820;51.580;5.010;2023-02-28T08:54:27;6.63;;;2.33;;
24713;SDS011;12820;51.580;5.010;2023-02-28T08:59:32;7.18;;;2.10;;
24713;SDS011;12820;51.580;5.010;2023-02-28T09:04:34;3.78;;;2.05;;
24713;SDS011;12820;51.580;5.010;2023-02-28T09:09:36;3.83;;;1.70;;
24713;SDS011;12820;51.580;5.010;2023-02-28T09:14:39;4.07;;;1.75;;
24713;SDS011;12820;51.580;5.010;2023-02-28T09:19:41;4.05;;;1.95;;
24713;SDS011;12820;51.580;5.010;2023-02-28T09:24:44;4.82;;;2.25;;
24713;SDS011;12820;51.580;5.010;2023-02-28T09:29:46;5.03;;;2.40;;
24713;SDS011;12820;51.580;5.010;2023-02-28T09:34:48;5.97;;;2.50;;
24713;SDS011;12820;51.580;5.010;2023-02-28T09:39:51;4.40;;;2.00;;
24713;SDS011;12820;51.580;5.010;2023-02-28T09:44:53;3.92;;;2.00;;
24713;SDS011;12820;51.580;5.010;2023-02-28T09:49:59;6.72;;;2.22;;
24713;SDS011;12820;51.580;5.010;2023-02-28T09:55:27;3.97;;;2.00;;
24713;SDS011;12820;51.580;5.010;2023-02-28T10:00:48;4.40;;;2.03;;
24713;SDS011;12820;51.580;5.010;2023-02-28T10:06:12;5.05;;;2.00;;
24713;SDS011;12820;51.580;5.010;2023-02-28T10:11:18;4.07;;;2.15;;
24713;SDS011;12820;51.580;5.010;2023-02-28T10:16:24;4.25;;;2.10;;
24713;SDS011;12820;51.580;5.010;2023-02-28T10:21:35;5.60;;;2.38;;
24713;SDS011;12820;51.580;5.010;2023-02-28T10:26:40;5.27;;;2.47;;
24713;SDS011;12820;51.580;5.010;2023-02-28T10:31:46;4.13;;;1.90;;
24713;SDS011;12820;51.580;5.010;2023-02-28T10:36:49;4.40;;;2.10;;
24713;SDS011;12820;51.580;5.010;2023-02-28T10:41:52;3.92;;;2.00;;
24713;SDS011;12820;51.580;5.010;2023-02-28T10:46:55;5.05;;;2.10;;
24713;SDS011;12820;51.580;5.010;2023-02-28T10:51:59;4.40;;;1.80;;
24713;SDS011;12820;51.580;5.010;2023-02-28T11:02:30;4.05;;;1.80;;
24713;SDS011;12820;51.580;5.010;2023-02-28T11:07:38;4.45;;;2.00;;
24713;SDS011;12820;51.580;5.010;2023-02-28T11:12:54;5.28;;;1.60;;
24713;SDS011;12820;51.580;5.010;2023-02-28T11:23:22;6.82;;;2.00;;
24713;SDS011;12820;51.580;5.010;2023-02-28T11:33:53;5.93;;;2.13;;
24713;SDS011;12820;51.580;5.010;2023-02-28T11:39:04;3.92;;;1.70;;
24713;SDS011;12820;51.580;5.010;2023-02-28T11:44:16;7.57;;;1.75;;
24713;SDS011;12820;51.580;5.010;2023-02-28T11:49:38;4.53;;;1.80;;
24713;SDS011;12820;51.580;5.010;2023-02-28T12:27:25;3.22;;;1.60;;
24713;SDS011;12820;51.580;5.010;2023-02-28T12:32:32;4.32;;;1.58;;
24713;SDS011;12820;51.580;5.010;2023-02-28T12:37:41;3.63;;;1.60;;
24713;SDS011;12820;51.580;5.010;2023-02-28T12:42:59;4.93;;;1.73;;
24713;SDS011;12820;51.580;5.010;2023-02-28T12:48:06;3.35;;;1.70;;
24713;SDS011;12820;51.580;5.010;2023-02-28T12:53:22;3.97;;;1.90;;
24713;SDS011;12820;51.580;5.010;2023-02-28T12:58:43;4.50;;;1.83;;
24713;SDS011;12820;51.580;5.010;2023-02-28T13:09:24;3.05;;;1.65;;
24713;SDS011;12820;51.580;5.010;2023-02-28T13:19:37;5.03;;;1.77;;
24713;SDS011;12820;51.580;5.010;2023-02-28T13:24:46;4.30;;;1.70;;
24713;SDS011;12820;51.580;5.010;2023-02-28T13:29:52;5.20;;;2.53;;
24713;SDS011;12820;51.580;5.010;2023-02-28T13:40:44;4.80;;;1.95;;
24713;SDS011;12820;51.580;5.010;2023-02-28T13:45:38;4.65;;;1.77;;
24713;SDS011;12820;51.580;5.010;2023-02-28T13:50:41;4.53;;;2.00;;
24713;SDS011;12820;51.580;5.010;2023-02-28T14:01:14;3.90;;;2.05;;
24713;SDS011;12820;51.580;5.010;2023-02-28T14:06:35;3.88;;;1.73;;
24713;SDS011;12820;51.580;5.010;2023-02-28T14:11:40;3.83;;;1.90;;
24713;SDS011;12820;51.580;5.010;2023-02-28T14:16:44;3.55;;;1.65;;
24713;SDS011;12820;51.580;5.010;2023-02-28T14:26:57;3.40;;;1.90;;
24713;SDS011;12820;51.580;5.010;2023-02-28T14:37:36;4.30;;;2.60;;
24713;SDS011;12820;51.580;5.010;2023-02-28T14:42:45;6.72;;;2.30;;
24713;SDS011;12820;51.580;5.010;2023-02-28T14:48:09;6.00;;;3.00;;
24713;SDS011;12820;51.580;5.010;2023-02-28T14:53:15;4.90;;;2.70;;
24713;SDS011;12820;51.580;5.010;2023-02-28T15:03:33;3.53;;;1.98;;
24713;SDS011;12820;51.580;5.010;2023-02-28T15:08:37;5.03;;;2.15;;
24713;SDS011;12820;51.580;5.010;2023-02-28T15:13:50;4.57;;;1.92;;
24713;SDS011;12820;51.580;5.010;2023-02-28T15:18:56;6.25;;;2.10;;
24713;SDS011;12820;51.580;5.010;2023-02-28T15:24:04;4.72;;;2.10;;
24713;SDS011;12820;51.580;5.010;2023-02-28T15:29:17;5.32;;;2.50;;
24713;SDS011;12820;51.580;5.010;2023-02-28T15:34:36;5.90;;;2.63;;
24713;SDS011;12820;51.580;5.010;2023-02-28T15:39:45;4.63;;;2.53;;
24713;SDS011;12820;51.580;5.010;2023-02-28T15:44:48;5.88;;;2.67;;
24713;SDS011;12820;51.580;5.010;2023-02-28T15:49:55;5.82;;;2.95;;
24713;SDS011;12820;51.580;5.010;2023-02-28T15:55:35;7.10;;;3.60;;
24713;SDS011;12820;51.580;5.010;2023-02-28T16:00:30;4.75;;;2.45;;
24713;SDS011;12820;51.580;5.010;2023-02-28T16:05:34;8.75;;;3.10;;
24713;SDS011;12820;51.580;5.010;2023-02-28T16:10:39;5.72;;;3.08;;
24713;SDS011;12820;51.580;5.010;2023-02-28T16:15:42;6.35;;;3.22;;
24713;SDS011;12820;51.580;5.010;2023-02-28T16:20:45;7.47;;;2.85;;
24713;SDS011;12820;51.580;5.010;2023-02-28T16:25:47;7.75;;;3.10;;
24713;SDS011;12820;51.580;5.010;2023-02-28T16:30:53;6.25;;;3.47;;
24713;SDS011;12820;51.580;5.010;2023-02-28T16:35:55;5.65;;;3.00;;
24713;SDS011;12820;51.580;5.010;2023-02-28T16:40:58;7.40;;;3.85;;
24713;SDS011;12820;51.580;5.010;2023-02-28T16:46:01;7.60;;;3.70;;
24713;SDS011;12820;51.580;5.010;2023-02-28T16:51:05;6.93;;;3.42;;
24713;SDS011;12820;51.580;5.010;2023-02-28T16:56:20;5.97;;;3.20;;
24713;SDS011;12820;51.580;5.010;2023-02-28T17:01:24;6.22;;;3.13;;
24713;SDS011;12820;51.580;5.010;2023-02-28T17:06:27;7.78;;;3.63;;
24713;SDS011;12820;51.580;5.010;2023-02-28T17:11:31;7.20;;;3.55;;
24713;SDS011;12820;51.580;5.010;2023-02-28T17:16:33;7.15;;;3.42;;
24713;SDS011;12820;51.580;5.010;2023-02-28T17:21:38;10.50;;;4.40;;
24713;SDS011;12820;51.580;5.010;2023-02-28T17:26:41;11.27;;;5.57;;
24713;SDS011;12820;51.580;5.010;2023-02-28T17:31:43;10.07;;;4.65;;
24713;SDS011;12820;51.580;5.010;2023-02-28T17:36:46;12.52;;;5.22;;
24713;SDS011;12820;51.580;5.010;2023-02-28T17:41:52;11.73;;;5.38;;
24713;SDS011;12820;51.580;5.010;2023-02-28T17:46:55;12.10;;;6.75;;
24713;SDS011;12820;51.580;5.010;2023-02-28T17:51:57;11.55;;;5.55;;
24713;SDS011;12820;51.580;5.010;2023-02-28T17:57:00;12.15;;;6.20;;
24713;SDS011;12820;51.580;5.010;2023-02-28T18:02:02;11.23;;;5.45;;
24713;SDS011;12820;51.580;5.010;2023-02-28T18:07:05;15.10;;;5.88;;
24713;SDS011;12820;51.580;5.010;2023-02-28T18:12:09;9.48;;;5.15;;
24713;SDS011;12820;51.580;5.010;2023-02-28T18:17:11;15.48;;;6.85;;
24713;SDS011;12820;51.580;5.010;2023-02-28T18:22:14;10.27;;;6.70;;
24713;SDS011;12820;51.580;5.010;2023-02-28T18:27:16;13.60;;;8.27;;
24713;SDS011;12820;51.580;5.010;2023-02-28T18:32:18;14.65;;;8.68;;
24713;SDS011;12820;51.580;5.010;2023-02-28T18:37:20;10.35;;;5.97;;
24713;SDS011;12820;51.580;5.010;2023-02-28T18:42:22;18.35;;;8.68;;
24713;SDS011;12820;51.580;5.010;2023-02-28T18:47:24;23.10;;;10.55;;
24713;SDS011;12820;51.580;5.010;2023-02-28T18:52:27;19.73;;;9.93;;
24713;SDS011;12820;51.580;5.010;2023-02-28T18:57:29;18.70;;;8.90;;
24713;SDS011;12820;51.580;5.010;2023-02-28T19:02:31;18.55;;;10.13;;
24713;SDS011;12820;51.580;5.010;2023-02-28T19:07:33;23.20;;;12.60;;
24713;SDS011;12820;51.580;5.010;2023-02-28T19:12:36;27.98;;;13.57;;
24713;SDS011;12820;51.580;5.010;2023-02-28T19:17:39;21.63;;;11.75;;
24713;SDS011;12820;51.580;5.010;2023-02-28T19:22:41;17.60;;;8.40;;
24713;SDS011;12820;51.580;5.010;2023-02-28T19:27:43;14.23;;;8.23;;
24713;SDS011;12820;51.580;5.010;2023-02-28T19:32:46;13.73;;;7.68;;
24713;SDS011;12820;51.580;5.010;2023-02-28T19:37:49;14.40;;;7.70;;
24713;SDS011;12820;51.580;5.010;2023-02-28T19:42:53;19.55;;;8.95;;
24713;SDS011;12820;51.580;5.010;2023-02-28T19:47:55;20.42;;;11.85;;
24713;SDS011;12820;51.580;5.010;2023-02-28T19:52:57;19.67;;;10.85;;
24713;SDS011;12820;51.580;5.010;2023-02-28T19:58:01;19.15;;;10.95;;
24713;SDS011;12820;51.580;5.010;2023-02-28T20:03:03;16.88;;;9.40;;
24713;SDS011;12820;51.580;5.010;2023-02-28T20:08:06;18.45;;;10.38;;
24713;SDS011;12820;51.580;5.010;2023-02-28T20:13:08;21.70;;;11.00;;
24713;SDS011;12820;51.580;5.010;2023-02-28T20:18:10;20.85;;;10.50;;
24713;SDS011;12820;51.580;5.010;2023-02-28T20:23:12;17.90;;;10.00;;
24713;SDS011;12820;51.580;5.010;2023-02-28T20:28:14;23.17;;;11.50;;
24713;SDS011;12820;51.580;5.010;2023-02-28T20:33:17;34.40;;;15.70;;
24713;SDS011;12820;51.580;5.010;2023-02-28T20:38:20;27.30;;;14.05;;
24713;SDS011;12820;51.580;5.010;2023-02-28T20:43:22;34.28;;;16.33;;
24713;SDS011;12820;51.580;5.010;2023-02-28T20:48:24;36.55;;;17.02;;
24713;SDS011;12820;51.580;5.010;2023-02-28T20:53:26;31.33;;;14.10;;
24713;SDS011;12820;51.580;5.010;2023-02-28T20:58:30;26.42;;;12.52;;
24713;SDS011;12820;51.580;5.010;2023-02-28T21:03:34;18.38;;;8.95;;
24713;SDS011;12820;51.580;5.010;2023-02-28T21:08:37;15.57;;;7.63;;
24713;SDS011;12820;51.580;5.010;2023-02-28T21:13:41;16.40;;;9.13;;
24713;SDS011;12820;51.580;5.010;2023-02-28T21:18:44;22.40;;;12.10;;
24713;SDS011;12820;51.580;5.010;2023-02-28T21:23:47;29.75;;;14.05;;
24713;SDS011;12820;51.580;5.010;2023-02-28T21:28:50;17.17;;;9.48;;
24713;SDS011;12820;51.580;5.010;2023-02-28T21:33:56;14.68;;;8.10;;
24713;SDS011;12820;51.580;5.010;2023-02-28T21:38:59;15.07;;;7.80;;
24713;SDS011;12820;51.580;5.010;2023-02-28T21:44:04;14.88;;;7.97;;
24713;SDS011;12820;51.580;5.010;2023-02-28T21:49:06;16.33;;;8.20;;
24713;SDS011;12820;51.580;5.010;2023-02-28T21:54:09;14.73;;;7.88;;
24713;SDS011;12820;51.580;5.010;2023-02-28T21:59:11;17.83;;;7.90;;
24713;SDS011;12820;51.580;5.010;2023-02-28T22:04:14;16.50;;;8.32;;
24713;SDS011;12820;51.580;5.010;2023-02-28T22:09:23;15.73;;;8.27;;
24713;SDS011;12820;51.580;5.010;2023-02-28T22:14:26;15.02;;;8.20;;
24713;SDS011;12820;51.580;5.010;2023-02-28T22:19:29;17.25;;;7.85;;
24713;SDS011;12820;51.580;5.010;2023-02-28T22:24:31;14.52;;;7.50;;
24713;SDS011;12820;51.580;5.010;2023-02-28T22:29:33;13.95;;;7.43;;
24713;SDS011;12820;51.580;5.010;2023-02-28T22:34:35;14.93;;;8.15;;
24713;SDS011;12820;51.580;5.010;2023-02-28T22:39:38;13.75;;;7.55;;
24713;SDS011;12820;51.580;5.010;2023-02-28T22:44:40;13.63;;;7.43;;
24713;SDS011;12820;51.580;5.010;2023-02-28T22:49:42;13.65;;;7.60;;
24713;SDS011;12820;51.580;5.010;2023-02-28T22:54:47;15.48;;;8.00;;
24713;SDS011;12820;51.580;5.010;2023-02-28T22:59:50;14.45;;;8.55;;
24713;SDS011;12820;51.580;5.010;2023-02-28T23:04:55;15.88;;;8.15;;
24713;SDS011;12820;51.580;5.010;2023-02-28T23:09:57;15.95;;;8.25;;
24713;SDS011;12820;51.580;5.010;2023-02-28T23:15:00;18.20;;;8.85;;
24713;SDS011;12820;51.580;5.010;2023-02-28T23:20:02;14.45;;;8.38;;
24713;SDS011;12820;51.580;5.010;2023-02-28T23:25:05;17.15;;;8.75;;
24713;SDS011;12820;51.580;5.010;2023-02-28T23:30:07;15.43;;;9.35;;
24713;SDS011;12820;51.580;5.010;2023-02-28T23:35:11;18.55;;;9.57;;
24713;SDS011;12820;51.580;5.010;2023-02-28T23:40:13;15.95;;;9.45;;
24713;SDS011;12820;51.580;5.010;2023-02-28T23:45:17;18.00;;;9.52;;
24713;SDS011;12820;51.580;5.010;2023-02-28T23:50:20;17.60;;;9.65;;
24713;SDS011;12820;51.580;5.010;2023-02-28T23:55:22;17.45;;;9.15;;
